PWSweather.com
Personal Weather Stations
Station Observations
WD4JKH
Forsyth, GA 31029

Forsyth, GA 31029

Lat: 33.033225, Lon: -83.927995

Elevation: 709

Station Type: Davis Vantage VUE

High Low Average
Temperature 81.2°F27.3°C 61.6°F16.4°C 70.0°F21.1°C
Dew Point 68.0°F20.0°C 61.0°F16.1°C 64.8°F18.2°C
Winds 7.1 mph 11.4 kmh Calm Calm 2.0 mph S3.2 kmh S
Wind Gusts 16.0 mph25.7 kmh -- 5.0 mph8.0 kmh
Humidity 98% 58% 85%
Pressure 30.21 in1023.0 mb 30.06 in1017.9 mb -
Precipitation 0.59 in15.0 mm - -
Hour Temp Dew Point Humidity Winds Wind Gusts Pressure Precip Precip Rate Daily Precip Total
12:02 AM 63.7°F17.6°C 62.8°F17.1°C 97% 1.0 mph SE1.6 kmh SE 2.0 mph3.2 kmh 30.18 in1022.0 mb 0.00 in0.0 mm 0.00 in0.0 mm 0.00 in0.0 mm
12:07 AM 63.7°F17.6°C 62.8°F17.1°C 97% 1.0 mph SE1.6 kmh SE 2.0 mph3.2 kmh 30.18 in1022.0 mb 0.00 in0.0 mm 0.00 in0.0 mm 0.00 in0.0 mm
12:12 AM 63.7°F17.6°C 62.8°F17.1°C 97% 2.7 mph SSE4.3 kmh SSE 5.0 mph8.0 kmh 30.18 in1022.0 mb 0.00 in0.0 mm 0.00 in0.0 mm 0.00 in0.0 mm
12:17 AM 63.7°F17.6°C 62.8°F17.1°C 97% 1.0 mph ESE1.6 kmh ESE 5.0 mph8.0 kmh 30.18 in1022.0 mb 0.00 in0.0 mm 0.00 in0.0 mm 0.00 in0.0 mm
12:23 AM 63.7°F17.6°C 62.8°F17.1°C 97% Calm Calm 5.0 mph8.0 kmh 30.18 in1022.0 mb 0.00 in0.0 mm 0.00 in0.0 mm 0.00 in0.0 mm
12:28 AM 63.7°F17.6°C 62.8°F17.1°C 97% Calm Calm 5.0 mph8.0 kmh 30.18 in1022.0 mb 0.00 in0.0 mm 0.00 in0.0 mm 0.00 in0.0 mm
12:33 AM 63.7°F17.6°C 62.8°F17.1°C 97% 1.4 mph SE2.3 kmh SE 3.0 mph4.8 kmh 30.18 in1022.0 mb 0.00 in0.0 mm 0.00 in0.0 mm 0.00 in0.0 mm
12:38 AM 63.7°F17.6°C 62.8°F17.1°C 97% Calm Calm 3.0 mph4.8 kmh 30.17 in1021.7 mb 0.00 in0.0 mm 0.00 in0.0 mm 0.00 in0.0 mm
12:42 AM 63.7°F17.6°C 62.8°F17.1°C 97% 1.6 mph SE2.6 kmh SE 2.0 mph3.2 kmh 30.17 in1021.7 mb 0.00 in0.0 mm 0.00 in0.0 mm 0.00 in0.0 mm
12:48 AM 63.7°F17.6°C 62.8°F17.1°C 97% Calm Calm 2.0 mph3.2 kmh 30.17 in1021.7 mb 0.00 in0.0 mm 0.00 in0.0 mm 0.00 in0.0 mm
12:53 AM 63.7°F17.6°C 62.8°F17.1°C 97% 1.0 mph SE1.6 kmh SE 2.0 mph3.2 kmh 30.17 in1021.7 mb 0.00 in0.0 mm 0.00 in0.0 mm 0.00 in0.0 mm
12:58 AM 63.7°F17.6°C 62.8°F17.1°C 97% 1.0 mph ESE1.6 kmh ESE 2.0 mph3.2 kmh 30.16 in1021.3 mb 0.00 in0.0 mm 0.00 in0.0 mm 0.00 in0.0 mm
01:03 AM 63.7°F17.6°C 63.1°F17.3°C 98% 1.3 mph ESE2.1 kmh ESE 3.0 mph4.8 kmh 30.16 in1021.3 mb 0.00 in0.0 mm 0.00 in0.0 mm 0.00 in0.0 mm
01:08 AM 63.7°F17.6°C 63.1°F17.3°C 98% 1.0 mph SW1.6 kmh SW 3.0 mph4.8 kmh 30.17 in1021.7 mb 0.00 in0.0 mm 0.00 in0.0 mm 0.00 in0.0 mm
01:14 AM 63.7°F17.6°C 63.1°F17.3°C 98% 2.0 mph SW3.2 kmh SW 5.0 mph8.0 kmh 30.18 in1022.0 mb 0.00 in0.0 mm 0.00 in0.0 mm 0.00 in0.0 mm
01:19 AM 63.7°F17.6°C 63.1°F17.3°C 98% 1.6 mph SW2.6 kmh SW 5.0 mph8.0 kmh 30.19 in1022.4 mb 0.00 in0.0 mm 0.00 in0.0 mm 0.00 in0.0 mm
01:24 AM 63.7°F17.6°C 63.1°F17.3°C 98% 1.0 mph W1.6 kmh W 5.0 mph8.0 kmh 30.19 in1022.4 mb 0.00 in0.0 mm 0.00 in0.0 mm 0.00 in0.0 mm
01:29 AM 63.7°F17.6°C 63.1°F17.3°C 98% 1.3 mph WSW2.1 kmh WSW 5.0 mph8.0 kmh 30.20 in1022.7 mb 0.01 in0.3 mm 0.12 in3.0 mm 0.01 in0.3 mm
01:34 AM 63.7°F17.6°C 63.1°F17.3°C 98% 1.0 mph W1.6 kmh W 4.0 mph6.4 kmh 30.19 in1022.4 mb 0.01 in0.3 mm 0.00 in0.0 mm 0.01 in0.3 mm
01:40 AM 63.7°F17.6°C 63.1°F17.3°C 98% 1.6 mph W2.6 kmh W 3.0 mph4.8 kmh 30.19 in1022.4 mb 0.01 in0.3 mm 0.00 in0.0 mm 0.01 in0.3 mm
01:45 AM 63.8°F17.7°C 63.2°F17.3°C 98% 1.0 mph W1.6 kmh W 3.0 mph4.8 kmh 30.19 in1022.4 mb 0.01 in0.3 mm 0.00 in0.0 mm 0.01 in0.3 mm
01:50 AM 63.7°F17.6°C 63.1°F17.3°C 98% 1.4 mph NW2.3 kmh NW 3.0 mph4.8 kmh 30.19 in1022.4 mb 0.01 in0.3 mm 0.00 in0.0 mm 0.01 in0.3 mm
01:55 AM 63.8°F17.7°C 63.2°F17.3°C 98% 1.8 mph NW2.9 kmh NW 4.0 mph6.4 kmh 30.19 in1022.4 mb 0.02 in0.5 mm 0.12 in3.0 mm 0.02 in0.5 mm
02:00 AM 63.8°F17.7°C 63.2°F17.3°C 98% 1.5 mph NW2.4 kmh NW 4.0 mph6.4 kmh 30.19 in1022.4 mb 0.02 in0.5 mm 0.00 in0.0 mm 0.02 in0.5 mm
02:06 AM 63.8°F17.7°C 63.2°F17.3°C 98% 2.5 mph NW4.0 kmh NW 5.0 mph8.0 kmh 30.20 in1022.7 mb 0.02 in0.5 mm 0.00 in0.0 mm 0.02 in0.5 mm
02:11 AM 63.8°F17.7°C 63.2°F17.3°C 98% 3.4 mph NW5.5 kmh NW 6.0 mph9.7 kmh 30.20 in1022.7 mb 0.02 in0.5 mm 0.00 in0.0 mm 0.02 in0.5 mm
02:16 AM 63.7°F17.6°C 63.1°F17.3°C 98% 3.4 mph NW5.5 kmh NW 9.0 mph14.5 kmh 30.20 in1022.7 mb 0.03 in0.8 mm 0.12 in3.0 mm 0.03 in0.8 mm
02:21 AM 63.7°F17.6°C 63.1°F17.3°C 98% 2.8 mph NW4.5 kmh NW 9.0 mph14.5 kmh 30.20 in1022.7 mb 0.05 in1.3 mm 0.24 in6.1 mm 0.05 in1.3 mm
02:26 AM 63.7°F17.6°C 63.1°F17.3°C 98% 5.3 mph WNW8.5 kmh WNW 11.0 mph17.7 kmh 30.21 in1023.0 mb 0.09 in2.3 mm 0.48 in12.2 mm 0.10 in2.5 mm
02:32 AM 63.3°F17.4°C 62.7°F17.1°C 98% 7.1 mph WNW11.4 kmh WNW 16.0 mph25.7 kmh 30.21 in1023.0 mb 0.18 in4.6 mm 0.90 in22.9 mm 0.19 in4.8 mm
02:37 AM 63.0°F17.2°C 62.1°F16.7°C 97% 5.3 mph NW8.5 kmh NW 16.0 mph25.7 kmh 30.20 in1022.7 mb 0.32 in8.1 mm 1.68 in42.7 mm 0.33 in8.4 mm
02:42 AM 62.9°F17.2°C 62.0°F16.7°C 97% 2.8 mph NNW4.5 kmh NNW 16.0 mph25.7 kmh 30.19 in1022.4 mb 0.35 in8.9 mm 0.36 in9.1 mm 0.36 in9.1 mm
02:47 AM 62.9°F17.2°C 62.3°F16.8°C 98% 1.2 mph NW1.9 kmh NW 14.0 mph22.5 kmh 30.20 in1022.7 mb 0.36 in9.1 mm 0.12 in3.0 mm 0.37 in9.4 mm
02:53 AM 63.0°F17.2°C 62.4°F16.9°C 98% 2.6 mph NNW4.2 kmh NNW 13.0 mph20.9 kmh 30.20 in1022.7 mb 0.37 in9.4 mm 0.10 in2.5 mm 0.38 in9.7 mm
02:58 AM 63.0°F17.2°C 62.4°F16.9°C 98% 1.0 mph NW1.6 kmh NW 7.0 mph11.3 kmh 30.20 in1022.7 mb 0.37 in9.4 mm 0.00 in0.0 mm 0.39 in9.9 mm
03:03 AM 63.0°F17.2°C 62.4°F16.9°C 98% 1.2 mph NW1.9 kmh NW 6.0 mph9.7 kmh 30.20 in1022.7 mb 0.37 in9.4 mm 0.00 in0.0 mm 0.39 in9.9 mm
03:08 AM 63.1°F17.3°C 62.5°F16.9°C 98% 1.0 mph W1.6 kmh W 5.0 mph8.0 kmh 30.21 in1023.0 mb 0.37 in9.4 mm 0.00 in0.0 mm 0.39 in9.9 mm
03:13 AM 63.1°F17.3°C 62.5°F16.9°C 98% 1.0 mph WSW1.6 kmh WSW 2.0 mph3.2 kmh 30.21 in1023.0 mb 0.37 in9.4 mm 0.00 in0.0 mm 0.39 in9.9 mm
03:19 AM 63.1°F17.3°C 62.5°F16.9°C 98% Calm Calm 2.0 mph3.2 kmh 30.21 in1023.0 mb 0.35 in8.9 mm 0.00 in0.0 mm 0.39 in9.9 mm
03:24 AM 63.1°F17.3°C 62.5°F16.9°C 98% 1.3 mph NW2.1 kmh NW 2.0 mph3.2 kmh 30.21 in1023.0 mb 0.32 in8.1 mm 0.00 in0.0 mm 0.39 in9.9 mm
03:29 AM 63.1°F17.3°C 62.5°F16.9°C 98% 2.2 mph NW3.5 kmh NW 4.0 mph6.4 kmh 30.21 in1023.0 mb 0.28 in7.1 mm 0.00 in0.0 mm 0.39 in9.9 mm
03:34 AM 63.1°F17.3°C 62.5°F16.9°C 98% 2.0 mph NW3.2 kmh NW 4.0 mph6.4 kmh 30.20 in1022.7 mb 0.11 in2.8 mm 0.00 in0.0 mm 0.39 in9.9 mm
03:39 AM 63.1°F17.3°C 62.5°F16.9°C 98% 2.4 mph NW3.9 kmh NW 4.0 mph6.4 kmh 30.20 in1022.7 mb 0.04 in1.0 mm 0.00 in0.0 mm 0.39 in9.9 mm
03:45 AM 63.0°F17.2°C 62.4°F16.9°C 98% 1.0 mph NNW1.6 kmh NNW 4.0 mph6.4 kmh 30.20 in1022.7 mb 0.02 in0.5 mm 0.00 in0.0 mm 0.39 in9.9 mm
03:50 AM 63.0°F17.2°C 62.4°F16.9°C 98% 1.5 mph WNW2.4 kmh WNW 4.0 mph6.4 kmh 30.19 in1022.4 mb 0.01 in0.3 mm 0.00 in0.0 mm 0.39 in9.9 mm
03:55 AM 62.9°F17.2°C 62.3°F16.8°C 98% 1.0 mph N1.6 kmh N 4.0 mph6.4 kmh 30.19 in1022.4 mb 0.00 in0.0 mm 0.00 in0.0 mm 0.39 in9.9 mm
04:00 AM 62.9°F17.2°C 62.3°F16.8°C 98% Calm Calm 3.0 mph4.8 kmh 30.19 in1022.4 mb 0.00 in0.0 mm 0.00 in0.0 mm 0.39 in9.9 mm
04:05 AM 62.8°F17.1°C 62.2°F16.8°C 98% 1.0 mph WNW1.6 kmh WNW 2.0 mph3.2 kmh 30.18 in1022.0 mb 0.00 in0.0 mm 0.00 in0.0 mm 0.39 in9.9 mm
04:11 AM 62.8°F17.1°C 62.2°F16.8°C 98% Calm Calm 2.0 mph3.2 kmh 30.18 in1022.0 mb 0.01 in0.3 mm 0.10 in2.5 mm 0.40 in10.2 mm
04:16 AM 62.8°F17.1°C 62.2°F16.8°C 98% Calm Calm 2.0 mph3.2 kmh 30.19 in1022.4 mb 0.01 in0.3 mm 0.00 in0.0 mm 0.40 in10.2 mm
04:21 AM 62.8°F17.1°C 62.2°F16.8°C 98% 1.0 mph NNE1.6 kmh NNE 2.0 mph3.2 kmh 30.19 in1022.4 mb 0.02 in0.5 mm 0.12 in3.0 mm 0.41 in10.4 mm
04:26 AM 62.8°F17.1°C 62.2°F16.8°C 98% 1.5 mph SW2.4 kmh SW 2.0 mph3.2 kmh 30.20 in1022.7 mb 0.03 in0.8 mm 0.12 in3.0 mm 0.42 in10.7 mm
04:31 AM 62.6°F17.0°C 62.0°F16.7°C 98% 2.2 mph SW3.5 kmh SW 4.0 mph6.4 kmh 30.20 in1022.7 mb 0.04 in1.0 mm 0.12 in3.0 mm 0.43 in10.9 mm
04:37 AM 62.5°F16.9°C 61.9°F16.6°C 98% 1.6 mph WSW2.6 kmh WSW 4.0 mph6.4 kmh 30.20 in1022.7 mb 0.05 in1.3 mm 0.10 in2.5 mm 0.44 in11.2 mm
04:42 AM 62.4°F16.9°C 61.8°F16.6°C 98% 1.7 mph WSW2.7 kmh WSW 4.0 mph6.4 kmh 30.20 in1022.7 mb 0.06 in1.5 mm 0.12 in3.0 mm 0.45 in11.4 mm
04:47 AM 62.4°F16.9°C 61.8°F16.6°C 98% 1.0 mph WSW1.6 kmh WSW 4.0 mph6.4 kmh 30.20 in1022.7 mb 0.08 in2.0 mm 0.24 in6.1 mm 0.47 in11.9 mm
04:52 AM 62.3°F16.8°C 61.7°F16.5°C 98% Calm Calm 3.0 mph4.8 kmh 30.19 in1022.4 mb 0.10 in2.5 mm 0.24 in6.1 mm 0.49 in12.4 mm
04:57 AM 62.2°F16.8°C 61.6°F16.4°C 98% Calm Calm 3.0 mph4.8 kmh 30.19 in1022.4 mb 0.12 in3.0 mm 0.24 in6.1 mm 0.51 in13.0 mm
05:03 AM 62.2°F16.8°C 61.6°F16.4°C 98% Calm Calm 1.0 mph1.6 kmh 30.18 in1022.0 mb 0.13 in3.3 mm 0.01 in0.3 mm 0.52 in13.2 mm
05:08 AM 62.1°F16.7°C 61.5°F16.4°C 98% 1.0 mph ENE1.6 kmh ENE 1.0 mph1.6 kmh 30.18 in1022.0 mb 0.15 in3.8 mm 0.24 in6.1 mm 0.54 in13.7 mm
05:13 AM 62.2°F16.8°C 61.6°F16.4°C 98% 1.0 mph E1.6 kmh E 2.0 mph3.2 kmh 30.18 in1022.0 mb 0.16 in4.1 mm 0.12 in3.0 mm 0.56 in14.2 mm
05:18 AM 62.2°F16.8°C 61.6°F16.4°C 98% 1.5 mph WSW2.4 kmh WSW 3.0 mph4.8 kmh 30.20 in1022.7 mb 0.17 in4.3 mm 0.12 in3.0 mm 0.58 in14.7 mm
05:23 AM 62.1°F16.7°C 61.5°F16.4°C 98% 1.5 mph WSW2.4 kmh WSW 3.0 mph4.8 kmh 30.20 in1022.7 mb 0.17 in4.3 mm 0.00 in0.0 mm 0.59 in15.0 mm
05:29 AM 62.0°F16.7°C 61.4°F16.3°C 98% 1.0 mph SE1.6 kmh SE 3.0 mph4.8 kmh 30.20 in1022.7 mb 0.16 in4.1 mm 0.00 in0.0 mm 0.59 in15.0 mm
05:34 AM 61.9°F16.6°C 61.3°F16.3°C 98% 1.5 mph ESE2.4 kmh ESE 3.0 mph4.8 kmh 30.20 in1022.7 mb 0.15 in3.8 mm 0.00 in0.0 mm 0.59 in15.0 mm
05:39 AM 61.9°F16.6°C 61.3°F16.3°C 98% Calm Calm 3.0 mph4.8 kmh 30.19 in1022.4 mb 0.14 in3.6 mm 0.00 in0.0 mm 0.59 in15.0 mm
05:44 AM 61.8°F16.6°C 61.2°F16.2°C 98% 1.0 mph ESE1.6 kmh ESE 2.0 mph3.2 kmh 30.19 in1022.4 mb 0.13 in3.3 mm 0.00 in0.0 mm 0.59 in15.0 mm
05:49 AM 61.8°F16.6°C 61.2°F16.2°C 98% 1.3 mph ESE2.1 kmh ESE 2.0 mph3.2 kmh 30.19 in1022.4 mb 0.11 in2.8 mm 0.00 in0.0 mm 0.59 in15.0 mm
05:55 AM 61.8°F16.6°C 61.2°F16.2°C 98% 1.0 mph SE1.6 kmh SE 2.0 mph3.2 kmh 30.20 in1022.7 mb 0.09 in2.3 mm 0.00 in0.0 mm 0.59 in15.0 mm
06:00 AM 61.7°F16.5°C 61.1°F16.2°C 98% 1.0 mph SE1.6 kmh SE 2.0 mph3.2 kmh 30.20 in1022.7 mb 0.08 in2.0 mm 0.00 in0.0 mm 0.59 in15.0 mm
06:05 AM 61.8°F16.6°C 61.2°F16.2°C 98% 1.2 mph SE1.9 kmh SE 2.0 mph3.2 kmh 30.20 in1022.7 mb 0.06 in1.5 mm 0.00 in0.0 mm 0.59 in15.0 mm
06:10 AM 61.8°F16.6°C 61.2°F16.2°C 98% Calm Calm 2.0 mph3.2 kmh 30.20 in1022.7 mb 0.04 in1.0 mm 0.00 in0.0 mm 0.59 in15.0 mm
06:15 AM 61.8°F16.6°C 61.2°F16.2°C 98% Calm Calm 2.0 mph3.2 kmh 30.20 in1022.7 mb 0.02 in0.5 mm 0.00 in0.0 mm 0.59 in15.0 mm
06:21 AM 61.7°F16.5°C 61.1°F16.2°C 98% Calm Calm 2.0 mph3.2 kmh 30.20 in1022.7 mb 0.01 in0.3 mm 0.00 in0.0 mm 0.59 in15.0 mm
06:26 AM 61.7°F16.5°C 61.1°F16.2°C 98% Calm Calm -- 30.20 in1022.7 mb 0.00 in0.0 mm 0.00 in0.0 mm 0.59 in15.0 mm
06:31 AM 61.6°F16.4°C 61.0°F16.1°C 98% Calm Calm -- 30.20 in1022.7 mb 0.00 in0.0 mm 0.00 in0.0 mm 0.59 in15.0 mm
06:36 AM 61.6°F16.4°C 61.0°F16.1°C 98% 1.0 mph SE1.6 kmh SE 1.0 mph1.6 kmh 30.19 in1022.4 mb 0.00 in0.0 mm 0.00 in0.0 mm 0.59 in15.0 mm
06:41 AM 61.7°F16.5°C 61.1°F16.2°C 98% 1.0 mph E1.6 kmh E 2.0 mph3.2 kmh 30.19 in1022.4 mb 0.00 in0.0 mm 0.00 in0.0 mm 0.59 in15.0 mm
06:46 AM 61.7°F16.5°C 61.1°F16.2°C 98% 1.0 mph E1.6 kmh E 2.0 mph3.2 kmh 30.20 in1022.7 mb 0.00 in0.0 mm 0.00 in0.0 mm 0.59 in15.0 mm
06:51 AM 61.8°F16.6°C 61.2°F16.2°C 98% Calm Calm 2.0 mph3.2 kmh 30.20 in1022.7 mb 0.00 in0.0 mm 0.00 in0.0 mm 0.59 in15.0 mm
06:56 AM 61.8°F16.6°C 61.2°F16.2°C 98% Calm Calm 2.0 mph3.2 kmh 30.20 in1022.7 mb 0.00 in0.0 mm 0.00 in0.0 mm 0.59 in15.0 mm
07:01 AM 61.8°F16.6°C 61.2°F16.2°C 98% 1.4 mph SE2.3 kmh SE 3.0 mph4.8 kmh 30.19 in1022.4 mb 0.00 in0.0 mm 0.00 in0.0 mm 0.59 in15.0 mm
07:06 AM 61.7°F16.5°C 61.1°F16.2°C 98% 1.0 mph ESE1.6 kmh ESE 3.0 mph4.8 kmh 30.19 in1022.4 mb 0.00 in0.0 mm 0.00 in0.0 mm 0.59 in15.0 mm
07:11 AM 61.7°F16.5°C 61.1°F16.2°C 98% 1.0 mph E1.6 kmh E 3.0 mph4.8 kmh 30.19 in1022.4 mb 0.00 in0.0 mm 0.00 in0.0 mm 0.59 in15.0 mm
07:16 AM 61.8°F16.6°C 61.2°F16.2°C 98% 1.0 mph SE1.6 kmh SE 3.0 mph4.8 kmh 30.19 in1022.4 mb 0.00 in0.0 mm 0.00 in0.0 mm 0.59 in15.0 mm
07:21 AM 61.8°F16.6°C 61.2°F16.2°C 98% 1.0 mph SE1.6 kmh SE 2.0 mph3.2 kmh 30.19 in1022.4 mb 0.00 in0.0 mm 0.00 in0.0 mm 0.59 in15.0 mm
07:26 AM 61.8°F16.6°C 61.2°F16.2°C 98% Calm Calm 2.0 mph3.2 kmh 30.19 in1022.4 mb 0.00 in0.0 mm 0.00 in0.0 mm 0.59 in15.0 mm
07:31 AM 61.9°F16.6°C 61.3°F16.3°C 98% Calm Calm 2.0 mph3.2 kmh 30.19 in1022.4 mb 0.00 in0.0 mm 0.00 in0.0 mm 0.59 in15.0 mm
07:36 AM 62.0°F16.7°C 61.4°F16.3°C 98% 1.0 mph SE1.6 kmh SE 1.0 mph1.6 kmh 30.19 in1022.4 mb 0.00 in0.0 mm 0.00 in0.0 mm 0.59 in15.0 mm
07:41 AM 62.2°F16.8°C 61.6°F16.4°C 98% 1.0 mph SE1.6 kmh SE 1.0 mph1.6 kmh 30.20 in1022.7 mb 0.00 in0.0 mm 0.00 in0.0 mm 0.59 in15.0 mm
07:46 AM 62.4°F16.9°C 61.8°F16.6°C 98% 1.6 mph SE2.6 kmh SE 3.0 mph4.8 kmh 30.20 in1022.7 mb 0.00 in0.0 mm 0.00 in0.0 mm 0.59 in15.0 mm
07:51 AM 62.5°F16.9°C 61.9°F16.6°C 98% Calm Calm 3.0 mph4.8 kmh 30.20 in1022.7 mb 0.00 in0.0 mm 0.00 in0.0 mm 0.59 in15.0 mm
07:56 AM 62.8°F17.1°C 62.2°F16.8°C 98% 2.1 mph SE3.4 kmh SE 3.0 mph4.8 kmh 30.20 in1022.7 mb 0.00 in0.0 mm 0.00 in0.0 mm 0.59 in15.0 mm
08:01 AM 62.8°F17.1°C 62.2°F16.8°C 98% Calm Calm 3.0 mph4.8 kmh 30.20 in1022.7 mb 0.00 in0.0 mm 0.00 in0.0 mm 0.59 in15.0 mm
08:06 AM 62.9°F17.2°C 62.3°F16.8°C 98% 1.0 mph SE1.6 kmh SE 3.0 mph4.8 kmh 30.20 in1022.7 mb 0.00 in0.0 mm 0.00 in0.0 mm 0.59 in15.0 mm
08:11 AM 63.1°F17.3°C 62.5°F16.9°C 98% Calm Calm 3.0 mph4.8 kmh 30.21 in1023.0 mb 0.00 in0.0 mm 0.00 in0.0 mm 0.59 in15.0 mm
08:16 AM 63.0°F17.2°C 62.4°F16.9°C 98% 1.4 mph SE2.3 kmh SE 2.0 mph3.2 kmh 30.21 in1023.0 mb 0.00 in0.0 mm 0.00 in0.0 mm 0.59 in15.0 mm
08:21 AM 63.0°F17.2°C 62.4°F16.9°C 98% 1.5 mph SE2.4 kmh SE 3.0 mph4.8 kmh 30.20 in1022.7 mb 0.00 in0.0 mm 0.00 in0.0 mm 0.59 in15.0 mm
08:26 AM 62.9°F17.2°C 62.3°F16.8°C 98% 1.7 mph SE2.7 kmh SE 3.0 mph4.8 kmh 30.20 in1022.7 mb 0.00 in0.0 mm 0.00 in0.0 mm 0.59 in15.0 mm
08:31 AM 63.2°F17.3°C 62.6°F17.0°C 98% 1.4 mph E2.3 kmh E 3.0 mph4.8 kmh 30.20 in1022.7 mb 0.00 in0.0 mm 0.00 in0.0 mm 0.59 in15.0 mm
08:36 AM 63.6°F17.6°C 63.0°F17.2°C 98% 2.2 mph ESE3.5 kmh ESE 4.0 mph6.4 kmh 30.20 in1022.7 mb 0.00 in0.0 mm 0.00 in0.0 mm 0.59 in15.0 mm
08:41 AM 63.6°F17.6°C 63.0°F17.2°C 98% 1.7 mph SE2.7 kmh SE 5.0 mph8.0 kmh 30.20 in1022.7 mb 0.00 in0.0 mm 0.00 in0.0 mm 0.59 in15.0 mm
08:46 AM 63.8°F17.7°C 63.2°F17.3°C 98% 2.9 mph SSE4.7 kmh SSE 5.0 mph8.0 kmh 30.20 in1022.7 mb 0.00 in0.0 mm 0.00 in0.0 mm 0.59 in15.0 mm
08:51 AM 64.3°F17.9°C 63.7°F17.6°C 98% 2.2 mph SE3.5 kmh SE 5.0 mph8.0 kmh 30.19 in1022.4 mb 0.00 in0.0 mm 0.00 in0.0 mm 0.59 in15.0 mm
08:56 AM 64.5°F18.1°C 63.9°F17.7°C 98% 1.0 mph S1.6 kmh S 5.0 mph8.0 kmh 30.19 in1022.4 mb 0.00 in0.0 mm 0.00 in0.0 mm 0.59 in15.0 mm
09:01 AM 64.7°F18.2°C 63.8°F17.7°C 97% 3.4 mph S5.5 kmh S 7.0 mph11.3 kmh 30.19 in1022.4 mb 0.00 in0.0 mm 0.00 in0.0 mm 0.59 in15.0 mm
09:06 AM 64.6°F18.1°C 63.7°F17.6°C 97% 2.0 mph SE3.2 kmh SE 7.0 mph11.3 kmh 30.19 in1022.4 mb 0.00 in0.0 mm 0.00 in0.0 mm 0.59 in15.0 mm
09:11 AM 65.0°F18.3°C 64.1°F17.8°C 97% 1.2 mph SE1.9 kmh SE 7.0 mph11.3 kmh 30.19 in1022.4 mb 0.00 in0.0 mm 0.00 in0.0 mm 0.59 in15.0 mm
09:16 AM 65.3°F18.5°C 64.4°F18.0°C 97% 1.1 mph SSE1.8 kmh SSE 7.0 mph11.3 kmh 30.19 in1022.4 mb 0.00 in0.0 mm 0.00 in0.0 mm 0.59 in15.0 mm
09:21 AM 65.6°F18.7°C 64.4°F18.0°C 96% 1.7 mph SE2.7 kmh SE 7.0 mph11.3 kmh 30.19 in1022.4 mb 0.00 in0.0 mm 0.00 in0.0 mm 0.59 in15.0 mm
09:26 AM 65.8°F18.8°C 64.6°F18.1°C 96% 1.8 mph SE2.9 kmh SE 5.0 mph8.0 kmh 30.19 in1022.4 mb 0.00 in0.0 mm 0.00 in0.0 mm 0.59 in15.0 mm
09:31 AM 66.3°F19.1°C 65.1°F18.4°C 96% 1.3 mph SE2.1 kmh SE 5.0 mph8.0 kmh 30.19 in1022.4 mb 0.00 in0.0 mm 0.00 in0.0 mm 0.59 in15.0 mm
09:36 AM 66.8°F19.3°C 65.3°F18.5°C 95% Calm Calm 5.0 mph8.0 kmh 30.19 in1022.4 mb 0.00 in0.0 mm 0.00 in0.0 mm 0.59 in15.0 mm
09:41 AM 67.1°F19.5°C 65.0°F18.3°C 93% 2.2 mph SSE3.5 kmh SSE 5.0 mph8.0 kmh 30.19 in1022.4 mb 0.00 in0.0 mm 0.00 in0.0 mm 0.59 in15.0 mm
09:46 AM 67.2°F19.6°C 65.1°F18.4°C 93% 1.9 mph SE3.1 kmh SE 5.0 mph8.0 kmh 30.19 in1022.4 mb 0.00 in0.0 mm 0.00 in0.0 mm 0.59 in15.0 mm
09:51 AM 67.4°F19.7°C 65.3°F18.5°C 93% 1.6 mph SE2.6 kmh SE 5.0 mph8.0 kmh 30.19 in1022.4 mb 0.00 in0.0 mm 0.00 in0.0 mm 0.59 in15.0 mm
09:56 AM 67.7°F19.8°C 65.0°F18.3°C 91% 1.8 mph SE2.9 kmh SE 5.0 mph8.0 kmh 30.19 in1022.4 mb 0.00 in0.0 mm 0.00 in0.0 mm 0.59 in15.0 mm
10:01 AM 68.3°F20.2°C 65.6°F18.7°C 91% 1.0 mph SE1.6 kmh SE 4.0 mph6.4 kmh 30.19 in1022.4 mb 0.00 in0.0 mm 0.00 in0.0 mm 0.59 in15.0 mm
10:06 AM 68.5°F20.3°C 65.1°F18.4°C 89% 1.7 mph SSE2.7 kmh SSE 5.0 mph8.0 kmh 30.18 in1022.0 mb 0.00 in0.0 mm 0.00 in0.0 mm 0.59 in15.0 mm
10:11 AM 68.6°F20.3°C 65.5°F18.6°C 90% 2.8 mph E4.5 kmh E 6.0 mph9.7 kmh 30.18 in1022.0 mb 0.00 in0.0 mm 0.00 in0.0 mm 0.59 in15.0 mm
10:16 AM 68.8°F20.4°C 65.1°F18.4°C 88% 2.0 mph SE3.2 kmh SE 6.0 mph9.7 kmh 30.18 in1022.0 mb 0.00 in0.0 mm 0.00 in0.0 mm 0.59 in15.0 mm
10:21 AM 69.3°F20.7°C 65.6°F18.7°C 88% 2.2 mph SSE3.5 kmh SSE 6.0 mph9.7 kmh 30.18 in1022.0 mb 0.00 in0.0 mm 0.00 in0.0 mm 0.59 in15.0 mm
10:26 AM 69.8°F21.0°C 65.8°F18.8°C 87% 1.2 mph S1.9 kmh S 6.0 mph9.7 kmh 30.18 in1022.0 mb 0.00 in0.0 mm 0.00 in0.0 mm 0.59 in15.0 mm
10:31 AM 70.1°F21.2°C 65.7°F18.7°C 86% 3.4 mph E5.5 kmh E 6.0 mph9.7 kmh 30.18 in1022.0 mb 0.00 in0.0 mm 0.00 in0.0 mm 0.59 in15.0 mm
10:36 AM 70.0°F21.1°C 65.6°F18.7°C 86% 3.0 mph E4.8 kmh E 7.0 mph11.3 kmh 30.18 in1022.0 mb 0.00 in0.0 mm 0.00 in0.0 mm 0.59 in15.0 mm
10:41 AM 70.0°F21.1°C 65.3°F18.5°C 85% 2.8 mph SE4.5 kmh SE 7.0 mph11.3 kmh 30.18 in1022.0 mb 0.00 in0.0 mm 0.00 in0.0 mm 0.59 in15.0 mm
10:46 AM 70.3°F21.3°C 65.9°F18.8°C 86% 1.6 mph SSE2.6 kmh SSE 7.0 mph11.3 kmh 30.18 in1022.0 mb 0.00 in0.0 mm 0.00 in0.0 mm 0.59 in15.0 mm
10:51 AM 70.5°F21.4°C 65.5°F18.6°C 84% 3.1 mph E5.0 kmh E 8.0 mph12.9 kmh 30.18 in1022.0 mb 0.00 in0.0 mm 0.00 in0.0 mm 0.59 in15.0 mm
10:56 AM 71.1°F21.7°C 66.1°F18.9°C 84% 1.5 mph SE2.4 kmh SE 8.0 mph12.9 kmh 30.18 in1022.0 mb 0.00 in0.0 mm 0.00 in0.0 mm 0.59 in15.0 mm
11:01 AM 71.5°F21.9°C 65.8°F18.8°C 82% 2.9 mph ESE4.7 kmh ESE 8.0 mph12.9 kmh 30.18 in1022.0 mb 0.00 in0.0 mm 0.00 in0.0 mm 0.59 in15.0 mm
11:06 AM 71.5°F21.9°C 66.1°F18.9°C 83% 4.4 mph ESE7.1 kmh ESE 8.0 mph12.9 kmh 30.18 in1022.0 mb 0.00 in0.0 mm 0.00 in0.0 mm 0.59 in15.0 mm
11:11 AM 72.2°F22.3°C 66.8°F19.3°C 83% 1.5 mph SE2.4 kmh SE 6.0 mph9.7 kmh 30.18 in1022.0 mb 0.00 in0.0 mm 0.00 in0.0 mm 0.59 in15.0 mm
11:16 AM 72.8°F22.7°C 66.7°F19.3°C 81% 2.6 mph E4.2 kmh E 6.0 mph9.7 kmh 30.18 in1022.0 mb 0.00 in0.0 mm 0.00 in0.0 mm 0.59 in15.0 mm
11:21 AM 72.6°F22.6°C 66.2°F19.0°C 80% 4.4 mph E7.1 kmh E 9.0 mph14.5 kmh 30.17 in1021.7 mb 0.00 in0.0 mm 0.00 in0.0 mm 0.59 in15.0 mm
11:26 AM 72.0°F22.2°C 65.9°F18.8°C 81% 4.9 mph E7.9 kmh E 10.0 mph16.1 kmh 30.17 in1021.7 mb 0.00 in0.0 mm 0.00 in0.0 mm 0.59 in15.0 mm
11:30 AM 72.0°F22.2°C 65.9°F18.8°C 81% 1.9 mph SE3.1 kmh SE 10.0 mph16.1 kmh 30.17 in1021.7 mb 0.00 in0.0 mm 0.00 in0.0 mm 0.59 in15.0 mm
11:35 AM 72.5°F22.5°C 66.1°F18.9°C 80% 2.5 mph ENE4.0 kmh ENE 10.0 mph16.1 kmh 30.17 in1021.7 mb 0.00 in0.0 mm 0.00 in0.0 mm 0.59 in15.0 mm
11:40 AM 72.8°F22.7°C 66.0°F18.9°C 79% 5.2 mph ESE8.4 kmh ESE 8.0 mph12.9 kmh 30.17 in1021.7 mb 0.00 in0.0 mm 0.00 in0.0 mm 0.59 in15.0 mm
11:45 AM 73.5°F23.1°C 66.0°F18.9°C 77% 1.6 mph SE2.6 kmh SE 8.0 mph12.9 kmh 30.17 in1021.7 mb 0.00 in0.0 mm 0.00 in0.0 mm 0.59 in15.0 mm
11:50 AM 74.3°F23.5°C 66.4°F19.1°C 76% 3.0 mph SE4.8 kmh SE 8.0 mph12.9 kmh 30.17 in1021.7 mb 0.00 in0.0 mm 0.00 in0.0 mm 0.59 in15.0 mm
11:55 AM 74.0°F23.3°C 65.6°F18.7°C 75% 3.8 mph SE6.1 kmh SE 12.0 mph19.3 kmh 30.17 in1021.7 mb 0.00 in0.0 mm 0.00 in0.0 mm 0.59 in15.0 mm
12:00 PM 73.8°F23.2°C 65.9°F18.8°C 76% 2.9 mph SE4.7 kmh SE 12.0 mph19.3 kmh 30.17 in1021.7 mb 0.00 in0.0 mm 0.00 in0.0 mm 0.59 in15.0 mm
12:05 PM 73.9°F23.3°C 64.9°F18.3°C 73% 6.5 mph ESE10.5 kmh ESE 12.0 mph19.3 kmh 30.17 in1021.7 mb 0.00 in0.0 mm 0.00 in0.0 mm 0.59 in15.0 mm
12:10 PM 73.9°F23.3°C 66.0°F18.9°C 76% 6.4 mph E10.3 kmh E 12.0 mph19.3 kmh 30.16 in1021.3 mb 0.00 in0.0 mm 0.00 in0.0 mm 0.59 in15.0 mm
12:15 PM 73.8°F23.2°C 65.5°F18.6°C 75% 4.4 mph ESE7.1 kmh ESE 12.0 mph19.3 kmh 30.16 in1021.3 mb 0.00 in0.0 mm 0.00 in0.0 mm 0.59 in15.0 mm
12:20 PM 73.9°F23.3°C 66.0°F18.9°C 76% 3.0 mph E4.8 kmh E 12.0 mph19.3 kmh 30.16 in1021.3 mb 0.00 in0.0 mm 0.00 in0.0 mm 0.59 in15.0 mm
12:25 PM 74.5°F23.6°C 66.9°F19.4°C 77% 3.2 mph ESE5.1 kmh ESE 11.0 mph17.7 kmh 30.16 in1021.3 mb 0.00 in0.0 mm 0.00 in0.0 mm 0.59 in15.0 mm
12:30 PM 75.6°F24.2°C 66.3°F19.1°C 73% 2.1 mph SSE3.4 kmh SSE 9.0 mph14.5 kmh 30.16 in1021.3 mb 0.00 in0.0 mm 0.00 in0.0 mm 0.59 in15.0 mm
12:35 PM 76.2°F24.6°C 66.5°F19.2°C 72% 3.1 mph SE5.0 kmh SE 9.0 mph14.5 kmh 30.16 in1021.3 mb 0.00 in0.0 mm 0.00 in0.0 mm 0.59 in15.0 mm
12:40 PM 76.8°F24.9°C 66.7°F19.3°C 71% 2.9 mph SE4.7 kmh SE 8.0 mph12.9 kmh 30.16 in1021.3 mb 0.00 in0.0 mm 0.00 in0.0 mm 0.59 in15.0 mm
12:45 PM 76.9°F24.9°C 66.4°F19.1°C 70% 2.2 mph SSW3.5 kmh SSW 8.0 mph12.9 kmh 30.16 in1021.3 mb 0.00 in0.0 mm 0.00 in0.0 mm 0.59 in15.0 mm
12:50 PM 77.4°F25.2°C 67.1°F19.5°C 70% 3.9 mph SSE6.3 kmh SSE 9.0 mph14.5 kmh 30.16 in1021.3 mb 0.00 in0.0 mm 0.00 in0.0 mm 0.59 in15.0 mm
12:55 PM 77.6°F25.3°C 67.3°F19.6°C 70% 1.2 mph E1.9 kmh E 9.0 mph14.5 kmh 30.16 in1021.3 mb 0.00 in0.0 mm 0.00 in0.0 mm 0.59 in15.0 mm
01:00 PM 77.2°F25.1°C 66.9°F19.4°C 70% 3.9 mph SE6.3 kmh SE 9.0 mph14.5 kmh 30.16 in1021.3 mb 0.00 in0.0 mm 0.00 in0.0 mm 0.59 in15.0 mm
01:05 PM 77.6°F25.3°C 66.4°F19.1°C 68% 4.2 mph SE6.8 kmh SE 11.0 mph17.7 kmh 30.15 in1021.0 mb 0.00 in0.0 mm 0.00 in0.0 mm 0.59 in15.0 mm
01:10 PM 77.4°F25.2°C 67.5°F19.7°C 71% 2.2 mph S3.5 kmh S 11.0 mph17.7 kmh 30.15 in1021.0 mb 0.00 in0.0 mm 0.00 in0.0 mm 0.59 in15.0 mm
01:15 PM 77.5°F25.3°C 66.1°F18.9°C 68% 3.1 mph SW5.0 kmh SW 11.0 mph17.7 kmh 30.15 in1021.0 mb 0.00 in0.0 mm 0.00 in0.0 mm 0.59 in15.0 mm
01:20 PM 77.6°F25.3°C 66.0°F18.9°C 67% 2.4 mph SSE3.9 kmh SSE 11.0 mph17.7 kmh 30.15 in1021.0 mb 0.00 in0.0 mm 0.00 in0.0 mm 0.59 in15.0 mm
01:25 PM 78.0°F25.6°C 66.8°F19.3°C 68% 1.0 mph SW1.6 kmh SW 11.0 mph17.7 kmh 30.15 in1021.0 mb 0.00 in0.0 mm 0.00 in0.0 mm 0.59 in15.0 mm
01:30 PM 78.4°F25.8°C 67.2°F19.6°C 68% 1.1 mph SW1.8 kmh SW 11.0 mph17.7 kmh 30.14 in1020.7 mb 0.00 in0.0 mm 0.00 in0.0 mm 0.59 in15.0 mm
01:35 PM 78.8°F26.0°C 66.7°F19.3°C 66% 1.0 mph SSW1.6 kmh SSW 8.0 mph12.9 kmh 30.14 in1020.7 mb 0.00 in0.0 mm 0.00 in0.0 mm 0.59 in15.0 mm
01:40 PM 79.0°F26.1°C 66.5°F19.2°C 65% 1.6 mph SE2.6 kmh SE 8.0 mph12.9 kmh 30.14 in1020.7 mb 0.00 in0.0 mm 0.00 in0.0 mm 0.59 in15.0 mm
01:45 PM 78.8°F26.0°C 66.7°F19.3°C 66% 3.0 mph SSE4.8 kmh SSE 10.0 mph16.1 kmh 30.14 in1020.7 mb 0.00 in0.0 mm 0.00 in0.0 mm 0.59 in15.0 mm
01:50 PM 78.7°F25.9°C 66.6°F19.2°C 66% 3.7 mph S6.0 kmh S 10.0 mph16.1 kmh 30.13 in1020.3 mb 0.00 in0.0 mm 0.00 in0.0 mm 0.59 in15.0 mm
01:55 PM 78.9°F26.1°C 66.8°F19.3°C 66% 2.2 mph SSW3.5 kmh SSW 10.0 mph16.1 kmh 30.13 in1020.3 mb 0.00 in0.0 mm 0.00 in0.0 mm 0.59 in15.0 mm
02:00 PM 79.0°F26.1°C 66.5°F19.2°C 65% 3.2 mph SE5.1 kmh SE 10.0 mph16.1 kmh 30.12 in1020.0 mb 0.00 in0.0 mm 0.00 in0.0 mm 0.59 in15.0 mm
02:05 PM 79.4°F26.3°C 66.6°F19.2°C 65% 2.4 mph SE3.9 kmh SE 9.0 mph14.5 kmh 30.12 in1020.0 mb 0.00 in0.0 mm 0.00 in0.0 mm 0.59 in15.0 mm
02:10 PM 79.6°F26.4°C 66.3°F19.1°C 64% 2.5 mph SE4.0 kmh SE 7.0 mph11.3 kmh 30.12 in1020.0 mb 0.00 in0.0 mm 0.00 in0.0 mm 0.59 in15.0 mm
02:15 PM 79.6°F26.4°C 66.6°F19.2°C 64% 2.7 mph SSE4.3 kmh SSE 7.0 mph11.3 kmh 30.12 in1020.0 mb 0.00 in0.0 mm 0.00 in0.0 mm 0.59 in15.0 mm
02:20 PM 79.4°F26.3°C 66.4°F19.1°C 64% 2.0 mph SSE3.2 kmh SSE 7.0 mph11.3 kmh 30.11 in1019.6 mb 0.00 in0.0 mm 0.00 in0.0 mm 0.59 in15.0 mm
02:25 PM 79.7°F26.5°C 67.1°F19.5°C 65% 4.4 mph SE7.1 kmh SE 12.0 mph19.3 kmh 30.11 in1019.6 mb 0.00 in0.0 mm 0.00 in0.0 mm 0.59 in15.0 mm
02:30 PM 79.8°F26.6°C 65.9°F18.8°C 62% 3.5 mph SW5.6 kmh SW 12.0 mph19.3 kmh 30.11 in1019.6 mb 0.00 in0.0 mm 0.00 in0.0 mm 0.59 in15.0 mm
02:35 PM 79.7°F26.5°C 66.2°F19.0°C 63% 3.0 mph SSW4.8 kmh SSW 12.0 mph19.3 kmh 30.11 in1019.6 mb 0.00 in0.0 mm 0.00 in0.0 mm 0.59 in15.0 mm
02:40 PM 79.7°F26.5°C 66.2°F19.0°C 63% 1.8 mph ESE2.9 kmh ESE 12.0 mph19.3 kmh 30.10 in1019.3 mb 0.00 in0.0 mm 0.00 in0.0 mm 0.59 in15.0 mm
02:45 PM 80.1°F26.7°C 66.1°F18.9°C 62% 4.3 mph SW6.9 kmh SW 14.0 mph22.5 kmh 30.10 in1019.3 mb 0.00 in0.0 mm 0.00 in0.0 mm 0.59 in15.0 mm
02:50 PM 80.2°F26.8°C 65.8°F18.8°C 61% 3.8 mph S6.1 kmh S 14.0 mph22.5 kmh 30.10 in1019.3 mb 0.00 in0.0 mm 0.00 in0.0 mm 0.59 in15.0 mm
02:55 PM 80.4°F26.9°C 66.0°F18.9°C 61% 2.7 mph SSE4.3 kmh SSE 14.0 mph22.5 kmh 30.10 in1019.3 mb 0.00 in0.0 mm 0.00 in0.0 mm 0.59 in15.0 mm
03:00 PM 80.8°F27.1°C 65.6°F18.7°C 60% 2.6 mph SSW4.2 kmh SSW 14.0 mph22.5 kmh 30.10 in1019.3 mb 0.00 in0.0 mm 0.00 in0.0 mm 0.59 in15.0 mm
03:05 PM 81.1°F27.3°C 66.6°F19.2°C 61% 3.0 mph S4.8 kmh S 10.0 mph16.1 kmh 30.10 in1019.3 mb 0.00 in0.0 mm 0.00 in0.0 mm 0.59 in15.0 mm
03:10 PM 80.7°F27.1°C 65.8°F18.8°C 60% 3.4 mph SSW5.5 kmh SSW 15.0 mph24.1 kmh 30.10 in1019.3 mb 0.00 in0.0 mm 0.00 in0.0 mm 0.59 in15.0 mm
03:15 PM 81.2°F27.3°C 65.2°F18.4°C 58% 3.0 mph SW4.8 kmh SW 15.0 mph24.1 kmh 30.10 in1019.3 mb 0.00 in0.0 mm 0.00 in0.0 mm 0.59 in15.0 mm
03:20 PM 81.2°F27.3°C 65.7°F18.7°C 59% 2.5 mph SW4.0 kmh SW 15.0 mph24.1 kmh 30.10 in1019.3 mb 0.00 in0.0 mm 0.00 in0.0 mm 0.59 in15.0 mm
03:25 PM 81.1°F27.3°C 65.6°F18.7°C 59% 3.8 mph SW6.1 kmh SW 12.0 mph19.3 kmh 30.10 in1019.3 mb 0.00 in0.0 mm 0.00 in0.0 mm 0.59 in15.0 mm
03:30 PM 81.1°F27.3°C 66.4°F19.1°C 61% 1.6 mph S2.6 kmh S 12.0 mph19.3 kmh 30.10 in1019.3 mb 0.00 in0.0 mm 0.00 in0.0 mm 0.59 in15.0 mm
03:35 PM 80.9°F27.2°C 66.4°F19.1°C 61% 2.6 mph S4.2 kmh S 12.0 mph19.3 kmh 30.10 in1019.3 mb 0.00 in0.0 mm 0.00 in0.0 mm 0.59 in15.0 mm
03:40 PM 80.7°F27.1°C 66.7°F19.3°C 62% 1.4 mph SW2.3 kmh SW 12.0 mph19.3 kmh 30.10 in1019.3 mb 0.00 in0.0 mm 0.00 in0.0 mm 0.59 in15.0 mm
03:45 PM 81.0°F27.2°C 67.0°F19.4°C 62% 2.3 mph SW3.7 kmh SW 6.0 mph9.7 kmh 30.10 in1019.3 mb 0.00 in0.0 mm 0.00 in0.0 mm 0.59 in15.0 mm
03:51 PM 80.7°F27.1°C 66.7°F19.3°C 62% 2.0 mph S3.2 kmh S 6.0 mph9.7 kmh 30.09 in1019.0 mb 0.00 in0.0 mm 0.00 in0.0 mm 0.59 in15.0 mm
03:55 PM 80.3°F26.8°C 66.6°F19.2°C 63% 1.7 mph SSW2.7 kmh SSW 5.0 mph8.0 kmh 30.09 in1019.0 mb 0.00 in0.0 mm 0.00 in0.0 mm 0.59 in15.0 mm
04:01 PM 80.3°F26.8°C 66.8°F19.3°C 63% 3.4 mph S5.5 kmh S 7.0 mph11.3 kmh 30.09 in1019.0 mb 0.00 in0.0 mm 0.00 in0.0 mm 0.59 in15.0 mm
04:05 PM 80.0°F26.7°C 66.5°F19.2°C 63% 2.0 mph SSW3.2 kmh SSW 8.0 mph12.9 kmh 30.09 in1019.0 mb 0.00 in0.0 mm 0.00 in0.0 mm 0.59 in15.0 mm
04:10 PM 79.5°F26.4°C 66.3°F19.1°C 64% 3.1 mph SSW5.0 kmh SSW 13.0 mph20.9 kmh 30.09 in1019.0 mb 0.00 in0.0 mm 0.00 in0.0 mm 0.59 in15.0 mm
04:16 PM 79.3°F26.3°C 66.3°F19.1°C 64% 1.0 mph S1.6 kmh S 13.0 mph20.9 kmh 30.09 in1019.0 mb 0.00 in0.0 mm 0.00 in0.0 mm 0.59 in15.0 mm
04:21 PM 79.3°F26.3°C 66.8°F19.3°C 65% 1.6 mph SSW2.6 kmh SSW 13.0 mph20.9 kmh 30.09 in1019.0 mb 0.00 in0.0 mm 0.00 in0.0 mm 0.59 in15.0 mm
04:26 PM 79.2°F26.2°C 66.7°F19.3°C 65% 1.9 mph S3.1 kmh S 10.0 mph16.1 kmh 30.09 in1019.0 mb 0.00 in0.0 mm 0.00 in0.0 mm 0.59 in15.0 mm
04:30 PM 79.2°F26.2°C 67.1°F19.5°C 66% 1.2 mph S1.9 kmh S 10.0 mph16.1 kmh 30.09 in1019.0 mb 0.00 in0.0 mm 0.00 in0.0 mm 0.59 in15.0 mm
04:35 PM 79.4°F26.3°C 67.3°F19.6°C 66% 3.3 mph SSW5.3 kmh SSW 7.0 mph11.3 kmh 30.09 in1019.0 mb 0.00 in0.0 mm 0.00 in0.0 mm 0.59 in15.0 mm
04:40 PM 79.4°F26.3°C 67.0°F19.4°C 66% 3.9 mph SW6.3 kmh SW 8.0 mph12.9 kmh 30.09 in1019.0 mb 0.00 in0.0 mm 0.00 in0.0 mm 0.59 in15.0 mm
04:45 PM 79.3°F26.3°C 67.6°F19.8°C 67% 2.0 mph S3.2 kmh S 11.0 mph17.7 kmh 30.08 in1018.6 mb 0.00 in0.0 mm 0.00 in0.0 mm 0.59 in15.0 mm
04:50 PM 79.6°F26.4°C 67.5°F19.7°C 66% 3.0 mph SW4.8 kmh SW 11.0 mph17.7 kmh 30.09 in1019.0 mb 0.00 in0.0 mm 0.00 in0.0 mm 0.59 in15.0 mm
04:55 PM 79.5°F26.4°C 67.8°F19.9°C 67% 2.0 mph SW3.2 kmh SW 11.0 mph17.7 kmh 30.08 in1018.6 mb 0.00 in0.0 mm 0.00 in0.0 mm 0.59 in15.0 mm
05:00 PM 79.3°F26.3°C 66.8°F19.3°C 65% 3.4 mph SSW5.5 kmh SSW 11.0 mph17.7 kmh 30.08 in1018.6 mb 0.00 in0.0 mm 0.00 in0.0 mm 0.59 in15.0 mm
05:05 PM 79.0°F26.1°C 66.9°F19.4°C 66% 1.0 mph S1.6 kmh S 9.0 mph14.5 kmh 30.08 in1018.6 mb 0.00 in0.0 mm 0.00 in0.0 mm 0.59 in15.0 mm
05:10 PM 78.9°F26.1°C 66.8°F19.3°C 66% 3.4 mph SW5.5 kmh SW 8.0 mph12.9 kmh 30.08 in1018.6 mb 0.00 in0.0 mm 0.00 in0.0 mm 0.59 in15.0 mm
05:15 PM 78.7°F25.9°C 67.1°F19.5°C 67% 2.1 mph SE3.4 kmh SE 8.0 mph12.9 kmh 30.08 in1018.6 mb 0.00 in0.0 mm 0.00 in0.0 mm 0.59 in15.0 mm
05:20 PM 78.8°F26.0°C 67.3°F19.6°C 68% 2.0 mph SW3.2 kmh SW 6.0 mph9.7 kmh 30.08 in1018.6 mb 0.00 in0.0 mm 0.00 in0.0 mm 0.59 in15.0 mm
05:25 PM 79.2°F26.2°C 67.1°F19.5°C 66% 2.4 mph SSW3.9 kmh SSW 6.0 mph9.7 kmh 30.07 in1018.3 mb 0.00 in0.0 mm 0.00 in0.0 mm 0.59 in15.0 mm
05:30 PM 79.4°F26.3°C 67.7°F19.8°C 67% 1.0 mph SE1.6 kmh SE 6.0 mph9.7 kmh 30.07 in1018.3 mb 0.00 in0.0 mm 0.00 in0.0 mm 0.59 in15.0 mm
05:35 PM 79.5°F26.4°C 67.4°F19.7°C 66% 2.0 mph SE3.2 kmh SE 6.0 mph9.7 kmh 30.07 in1018.3 mb 0.00 in0.0 mm 0.00 in0.0 mm 0.59 in15.0 mm
05:40 PM 79.6°F26.4°C 67.0°F19.4°C 65% 2.4 mph SW3.9 kmh SW 6.0 mph9.7 kmh 30.07 in1018.3 mb 0.00 in0.0 mm 0.00 in0.0 mm 0.59 in15.0 mm
05:45 PM 79.5°F26.4°C 67.6°F19.8°C 67% 1.0 mph SW1.6 kmh SW 4.0 mph6.4 kmh 30.07 in1018.3 mb 0.00 in0.0 mm 0.00 in0.0 mm 0.59 in15.0 mm
05:50 PM 79.1°F26.2°C 67.4°F19.7°C 67% 3.3 mph SW5.3 kmh SW 6.0 mph9.7 kmh 30.07 in1018.3 mb 0.00 in0.0 mm 0.00 in0.0 mm 0.59 in15.0 mm
05:55 PM 78.9°F26.1°C 67.7°F19.8°C 68% 1.0 mph SW1.6 kmh SW 6.0 mph9.7 kmh 30.06 in1017.9 mb 0.00 in0.0 mm 0.00 in0.0 mm 0.59 in15.0 mm
06:00 PM 79.2°F26.2°C 68.0°F20.0°C 68% Calm Calm 6.0 mph9.7 kmh 30.06 in1017.9 mb 0.00 in0.0 mm 0.00 in0.0 mm 0.59 in15.0 mm
06:05 PM 79.3°F26.3°C 67.6°F19.8°C 67% 2.2 mph SSE3.5 kmh SSE 6.0 mph9.7 kmh 30.06 in1017.9 mb 0.00 in0.0 mm 0.00 in0.0 mm 0.59 in15.0 mm
06:10 PM 79.0°F26.1°C 67.3°F19.6°C 67% 1.6 mph S2.6 kmh S 5.0 mph8.0 kmh 30.06 in1017.9 mb 0.00 in0.0 mm 0.00 in0.0 mm 0.59 in15.0 mm
06:15 PM 78.4°F25.8°C 66.5°F19.2°C 67% 2.5 mph SSE4.0 kmh SSE 6.0 mph9.7 kmh 30.06 in1017.9 mb 0.00 in0.0 mm 0.00 in0.0 mm 0.59 in15.0 mm
06:20 PM 78.1°F25.6°C 66.9°F19.4°C 68% 1.1 mph S1.8 kmh S 6.0 mph9.7 kmh 30.06 in1017.9 mb 0.00 in0.0 mm 0.00 in0.0 mm 0.59 in15.0 mm
06:25 PM 78.1°F25.6°C 67.3°F19.6°C 69% 1.8 mph SE2.9 kmh SE 6.0 mph9.7 kmh 30.06 in1017.9 mb 0.00 in0.0 mm 0.00 in0.0 mm 0.59 in15.0 mm
06:30 PM 77.9°F25.5°C 67.1°F19.5°C 69% 1.5 mph SW2.4 kmh SW 6.0 mph9.7 kmh 30.06 in1017.9 mb 0.00 in0.0 mm 0.00 in0.0 mm 0.59 in15.0 mm
06:35 PM 77.5°F25.3°C 67.2°F19.6°C 70% 1.0 mph SSE1.6 kmh SSE 4.0 mph6.4 kmh 30.07 in1018.3 mb 0.00 in0.0 mm 0.00 in0.0 mm 0.59 in15.0 mm
06:40 PM 77.2°F25.1°C 66.7°F19.3°C 70% 1.0 mph SW1.6 kmh SW 4.0 mph6.4 kmh 30.07 in1018.3 mb 0.00 in0.0 mm 0.00 in0.0 mm 0.59 in15.0 mm
06:45 PM 76.7°F24.8°C 66.8°F19.3°C 71% Calm Calm 3.0 mph4.8 kmh 30.07 in1018.3 mb 0.00 in0.0 mm 0.00 in0.0 mm 0.59 in15.0 mm
06:50 PM 76.3°F24.6°C 66.8°F19.3°C 72% 1.0 mph S1.6 kmh S 2.0 mph3.2 kmh 30.07 in1018.3 mb 0.00 in0.0 mm 0.00 in0.0 mm 0.59 in15.0 mm
06:55 PM 75.9°F24.4°C 66.8°F19.3°C 73% 1.0 mph SW1.6 kmh SW 2.0 mph3.2 kmh 30.08 in1018.6 mb 0.00 in0.0 mm 0.00 in0.0 mm 0.59 in15.0 mm
07:00 PM 75.5°F24.2°C 66.8°F19.3°C 74% Calm Calm 2.0 mph3.2 kmh 30.07 in1018.3 mb 0.00 in0.0 mm 0.00 in0.0 mm 0.59 in15.0 mm
07:05 PM 75.1°F23.9°C 66.8°F19.3°C 75% Calm Calm 1.0 mph1.6 kmh 30.07 in1018.3 mb 0.00 in0.0 mm 0.00 in0.0 mm 0.59 in15.0 mm
07:10 PM 74.6°F23.7°C 66.7°F19.3°C 76% Calm Calm 1.0 mph1.6 kmh 30.08 in1018.6 mb 0.00 in0.0 mm 0.00 in0.0 mm 0.59 in15.0 mm
07:15 PM 74.3°F23.5°C 66.8°F19.3°C 77% Calm Calm 1.0 mph1.6 kmh 30.08 in1018.6 mb 0.00 in0.0 mm 0.00 in0.0 mm 0.59 in15.0 mm
07:20 PM 74.0°F23.3°C 66.5°F19.2°C 77% Calm Calm 1.0 mph1.6 kmh 30.08 in1018.6 mb 0.00 in0.0 mm 0.00 in0.0 mm 0.59 in15.0 mm
07:25 PM 73.7°F23.2°C 66.5°F19.2°C 78% 1.0 mph SW1.6 kmh SW 2.0 mph3.2 kmh 30.08 in1018.6 mb 0.00 in0.0 mm 0.00 in0.0 mm 0.59 in15.0 mm
07:30 PM 73.5°F23.1°C 66.3°F19.1°C 78% Calm Calm 2.0 mph3.2 kmh 30.09 in1019.0 mb 0.00 in0.0 mm 0.00 in0.0 mm 0.59 in15.0 mm
07:35 PM 73.3°F22.9°C 66.5°F19.2°C 79% 1.0 mph SW1.6 kmh SW 2.0 mph3.2 kmh 30.09 in1019.0 mb 0.00 in0.0 mm 0.00 in0.0 mm 0.59 in15.0 mm
07:40 PM 73.1°F22.8°C 66.7°F19.3°C 80% Calm Calm 2.0 mph3.2 kmh 30.09 in1019.0 mb 0.00 in0.0 mm 0.00 in0.0 mm 0.59 in15.0 mm
07:45 PM 72.9°F22.7°C 66.4°F19.1°C 80% Calm Calm 1.0 mph1.6 kmh 30.09 in1019.0 mb 0.00 in0.0 mm 0.00 in0.0 mm 0.59 in15.0 mm
07:50 PM 72.7°F22.6°C 66.6°F19.2°C 81% Calm Calm 1.0 mph1.6 kmh 30.10 in1019.3 mb 0.00 in0.0 mm 0.00 in0.0 mm 0.59 in15.0 mm
07:55 PM 72.5°F22.5°C 66.4°F19.1°C 81% Calm Calm 1.0 mph1.6 kmh 30.10 in1019.3 mb 0.00 in0.0 mm 0.00 in0.0 mm 0.59 in15.0 mm
08:00 PM 72.4°F22.4°C 66.6°F19.2°C 82% 1.0 mph SW1.6 kmh SW 1.0 mph1.6 kmh 30.11 in1019.6 mb 0.00 in0.0 mm 0.00 in0.0 mm 0.59 in15.0 mm
08:05 PM 72.3°F22.4°C 66.5°F19.2°C 82% Calm Calm 1.0 mph1.6 kmh 30.11 in1019.6 mb 0.00 in0.0 mm 0.00 in0.0 mm 0.59 in15.0 mm
08:10 PM 72.2°F22.3°C 66.5°F19.2°C 82% 1.0 mph SSE1.6 kmh SSE 1.0 mph1.6 kmh 30.11 in1019.6 mb 0.00 in0.0 mm 0.00 in0.0 mm 0.59 in15.0 mm
08:15 PM 72.2°F22.3°C 66.5°F19.2°C 82% Calm Calm 1.0 mph1.6 kmh 30.10 in1019.3 mb 0.00 in0.0 mm 0.00 in0.0 mm 0.59 in15.0 mm
08:20 PM 72.1°F22.3°C 66.7°F19.3°C 83% 1.0 mph SW1.6 kmh SW 1.0 mph1.6 kmh 30.10 in1019.3 mb 0.00 in0.0 mm 0.00 in0.0 mm 0.59 in15.0 mm
08:25 PM 72.0°F22.2°C 66.6°F19.2°C 83% Calm Calm 1.0 mph1.6 kmh 30.10 in1019.3 mb 0.00 in0.0 mm 0.00 in0.0 mm 0.59 in15.0 mm
08:30 PM 71.9°F22.2°C 66.5°F19.2°C 83% Calm Calm 1.0 mph1.6 kmh 30.10 in1019.3 mb 0.00 in0.0 mm 0.00 in0.0 mm 0.59 in15.0 mm
08:35 PM 71.8°F22.1°C 66.4°F19.1°C 83% Calm Calm 1.0 mph1.6 kmh 30.10 in1019.3 mb 0.00 in0.0 mm 0.00 in0.0 mm 0.59 in15.0 mm
08:40 PM 71.6°F22.0°C 66.2°F19.0°C 83% Calm Calm 2.0 mph3.2 kmh 30.10 in1019.3 mb 0.00 in0.0 mm 0.00 in0.0 mm 0.59 in15.0 mm
08:45 PM 71.6°F22.0°C 66.5°F19.2°C 84% 1.3 mph SW2.1 kmh SW 2.0 mph3.2 kmh 30.11 in1019.6 mb 0.00 in0.0 mm 0.00 in0.0 mm 0.59 in15.0 mm
08:50 PM 71.5°F21.9°C 66.5°F19.2°C 84% Calm Calm 2.0 mph3.2 kmh 30.11 in1019.6 mb 0.00 in0.0 mm 0.00 in0.0 mm 0.59 in15.0 mm
08:55 PM 71.3°F21.8°C 66.3°F19.1°C 84% Calm Calm 2.0 mph3.2 kmh 30.11 in1019.6 mb 0.00 in0.0 mm 0.00 in0.0 mm 0.59 in15.0 mm
09:00 PM 71.1°F21.7°C 66.4°F19.1°C 85% Calm Calm 2.0 mph3.2 kmh 30.11 in1019.6 mb 0.00 in0.0 mm 0.00 in0.0 mm 0.59 in15.0 mm
09:05 PM 70.9°F21.6°C 66.2°F19.0°C 85% Calm Calm 1.0 mph1.6 kmh 30.11 in1019.6 mb 0.00 in0.0 mm 0.00 in0.0 mm 0.59 in15.0 mm
09:10 PM 70.7°F21.5°C 66.3°F19.1°C 86% Calm Calm 1.0 mph1.6 kmh 30.11 in1019.6 mb 0.00 in0.0 mm 0.00 in0.0 mm 0.59 in15.0 mm
09:15 PM 70.5°F21.4°C 66.1°F18.9°C 86% Calm Calm 1.0 mph1.6 kmh 30.11 in1019.6 mb 0.00 in0.0 mm 0.00 in0.0 mm 0.59 in15.0 mm
09:20 PM 70.3°F21.3°C 66.3°F19.1°C 87% Calm Calm 1.0 mph1.6 kmh 30.11 in1019.6 mb 0.00 in0.0 mm 0.00 in0.0 mm 0.59 in15.0 mm
09:25 PM 70.2°F21.2°C 66.2°F19.0°C 87% Calm Calm -- 30.11 in1019.6 mb 0.00 in0.0 mm 0.00 in0.0 mm 0.59 in15.0 mm
09:30 PM 70.0°F21.1°C 66.0°F18.9°C 87% 1.3 mph SW2.1 kmh SW 2.0 mph3.2 kmh 30.11 in1019.6 mb 0.00 in0.0 mm 0.00 in0.0 mm 0.59 in15.0 mm
09:35 PM 69.9°F21.1°C 66.2°F19.0°C 88% 1.0 mph SW1.6 kmh SW 2.0 mph3.2 kmh 30.11 in1019.6 mb 0.00 in0.0 mm 0.00 in0.0 mm 0.59 in15.0 mm
09:40 PM 69.7°F20.9°C 66.0°F18.9°C 88% Calm Calm 2.0 mph3.2 kmh 30.10 in1019.3 mb 0.00 in0.0 mm 0.00 in0.0 mm 0.59 in15.0 mm
09:45 PM 69.6°F20.9°C 66.2°F19.0°C 89% Calm Calm 2.0 mph3.2 kmh 30.10 in1019.3 mb 0.00 in0.0 mm 0.00 in0.0 mm 0.59 in15.0 mm
09:50 PM 69.5°F20.8°C 66.1°F18.9°C 89% Calm Calm 1.0 mph1.6 kmh 30.10 in1019.3 mb 0.00 in0.0 mm 0.00 in0.0 mm 0.59 in15.0 mm
09:55 PM 69.4°F20.8°C 66.0°F18.9°C 89% 1.0 mph SSE1.6 kmh SSE 1.0 mph1.6 kmh 30.10 in1019.3 mb 0.00 in0.0 mm 0.00 in0.0 mm 0.59 in15.0 mm
10:00 PM 69.4°F20.8°C 66.0°F18.9°C 89% 1.0 mph SE1.6 kmh SE 1.0 mph1.6 kmh 30.10 in1019.3 mb 0.00 in0.0 mm 0.00 in0.0 mm 0.59 in15.0 mm
10:05 PM 69.3°F20.7°C 65.9°F18.8°C 89% 1.0 mph SE1.6 kmh SE 1.0 mph1.6 kmh 30.10 in1019.3 mb 0.00 in0.0 mm 0.00 in0.0 mm 0.59 in15.0 mm
10:10 PM 69.2°F20.7°C 65.8°F18.8°C 89% Calm Calm 1.0 mph1.6 kmh 30.10 in1019.3 mb 0.00 in0.0 mm 0.00 in0.0 mm 0.59 in15.0 mm
10:15 PM 69.2°F20.7°C 66.1°F18.9°C 90% 1.0 mph W1.6 kmh W 1.0 mph1.6 kmh 30.10 in1019.3 mb 0.00 in0.0 mm 0.00 in0.0 mm 0.59 in15.0 mm
10:20 PM 69.2°F20.7°C 66.1°F18.9°C 90% 1.0 mph SSW1.6 kmh SSW 1.0 mph1.6 kmh 30.10 in1019.3 mb 0.00 in0.0 mm 0.00 in0.0 mm 0.59 in15.0 mm
10:24 PM 69.2°F20.7°C 66.1°F18.9°C 90% 1.3 mph SW2.1 kmh SW 2.0 mph3.2 kmh 30.10 in1019.3 mb 0.00 in0.0 mm 0.00 in0.0 mm 0.59 in15.0 mm
10:29 PM 69.1°F20.6°C 66.0°F18.9°C 90% Calm Calm 2.0 mph3.2 kmh 30.10 in1019.3 mb 0.00 in0.0 mm 0.00 in0.0 mm 0.59 in15.0 mm
10:34 PM 69.0°F20.6°C 65.9°F18.8°C 90% 1.0 mph SSW1.6 kmh SSW 2.0 mph3.2 kmh 30.10 in1019.3 mb 0.00 in0.0 mm 0.00 in0.0 mm 0.59 in15.0 mm
10:39 PM 69.0°F20.6°C 65.9°F18.8°C 90% Calm Calm 2.0 mph3.2 kmh 30.09 in1019.0 mb 0.00 in0.0 mm 0.00 in0.0 mm 0.59 in15.0 mm
10:44 PM 68.9°F20.5°C 65.8°F18.8°C 90% Calm Calm 1.0 mph1.6 kmh 30.10 in1019.3 mb 0.00 in0.0 mm 0.00 in0.0 mm 0.59 in15.0 mm
10:49 PM 68.8°F20.4°C 65.7°F18.7°C 90% Calm Calm 1.0 mph1.6 kmh 30.10 in1019.3 mb 0.00 in0.0 mm 0.00 in0.0 mm 0.59 in15.0 mm
10:54 PM 68.7°F20.4°C 65.9°F18.8°C 91% Calm Calm -- 30.10 in1019.3 mb 0.00 in0.0 mm 0.00 in0.0 mm 0.59 in15.0 mm
10:59 PM 68.6°F20.3°C 65.8°F18.8°C 91% Calm Calm -- 30.10 in1019.3 mb 0.00 in0.0 mm 0.00 in0.0 mm 0.59 in15.0 mm
11:04 PM 68.7°F20.4°C 65.9°F18.8°C 91% Calm Calm -- 30.10 in1019.3 mb 0.00 in0.0 mm 0.00 in0.0 mm 0.54 in13.7 mm
11:09 PM 68.8°F20.4°C 66.0°F18.9°C 91% Calm Calm -- 30.10 in1019.3 mb 0.00 in0.0 mm 0.00 in0.0 mm 0.54 in13.7 mm
11:14 PM 68.9°F20.5°C 65.8°F18.8°C 90% Calm Calm -- 30.09 in1019.0 mb 0.00 in0.0 mm 0.00 in0.0 mm 0.54 in13.7 mm
11:19 PM 68.9°F20.5°C 65.8°F18.8°C 90% Calm Calm -- 30.09 in1019.0 mb 0.00 in0.0 mm 0.00 in0.0 mm 0.54 in13.7 mm
11:24 PM 68.9°F20.5°C 65.8°F18.8°C 90% Calm Calm -- 30.09 in1019.0 mb 0.00 in0.0 mm 0.00 in0.0 mm 0.54 in13.7 mm
11:29 PM 68.9°F20.5°C 65.8°F18.8°C 90% Calm Calm -- 30.09 in1019.0 mb 0.00 in0.0 mm 0.00 in0.0 mm 0.54 in13.7 mm
11:34 PM 68.8°F20.4°C 65.7°F18.7°C 90% Calm Calm -- 30.09 in1019.0 mb 0.00 in0.0 mm 0.00 in0.0 mm 0.54 in13.7 mm
11:39 PM 68.8°F20.4°C 65.7°F18.7°C 90% Calm Calm -- 30.09 in1019.0 mb 0.00 in0.0 mm 0.00 in0.0 mm 0.54 in13.7 mm
11:44 PM 68.8°F20.4°C 66.0°F18.9°C 91% 1.0 mph SW1.6 kmh SW 1.0 mph1.6 kmh 30.09 in1019.0 mb 0.00 in0.0 mm 0.00 in0.0 mm 0.54 in13.7 mm
11:49 PM 68.9°F20.5°C 65.8°F18.8°C 90% Calm Calm 1.0 mph1.6 kmh 30.09 in1019.0 mb 0.00 in0.0 mm 0.00 in0.0 mm 0.54 in13.7 mm
11:54 PM 69.0°F20.6°C 65.9°F18.8°C 90% Calm Calm 1.0 mph1.6 kmh 30.09 in1019.0 mb 0.00 in0.0 mm 0.00 in0.0 mm 0.54 in13.7 mm
11:59 PM 69.0°F20.6°C 65.9°F18.8°C 90% Calm Calm 1.0 mph1.6 kmh 30.09 in1019.0 mb 0.00 in0.0 mm 0.00 in0.0 mm 0.54 in13.7 mm